Time;durP1;ratioP1;P1;durP2;ratioP2;P2;SDS_P1;SDS_P2;PMS_P1;PMS_P2;Temp;Humidity;BMP_temperature;BMP_pressure;BME280_temperature;BME280_humidity;BME280_pressure;Samples;Min_cycle;Max_cycle;Signal;HPM_P1;HPM_P2
2022/09/22 00:00:32;;;;;;;5.97;3.20;;;5.60;99.90;;;;;;5044688;28;20467;-48
2022/09/22 00:02:58;;;;;;;3.85;2.67;;;;;;;;;;5045043;28;20475;-53
2022/09/22 00:05:25;;;;;;;6.35;3.38;;;5.30;99.90;;;;;;5044795;28;20048;-51
2022/09/22 00:07:52;;;;;;;15.70;3.47;;;5.70;99.90;;;;;;5044609;28;20045;-50
2022/09/22 00:10:20;;;;;;;6.82;3.05;;;5.80;99.90;;;;;;5043854;28;20395;-51
2022/09/22 00:12:46;;;;;;;5.65;2.30;;;5.40;99.90;;;;;;5044022;28;20056;-51
2022/09/22 00:15:12;;;;;;;6.95;3.47;;;5.50;99.90;;;;;;5044250;28;20052;-50
2022/09/22 00:17:38;;;;;;;2.83;1.58;;;5.80;99.90;;;;;;5044161;28;20045;-49
2022/09/22 00:20:05;;;;;;;6.30;2.47;;;5.70;99.90;;;;;;5044560;28;20045;-52
2022/09/22 00:22:31;;;;;;;7.82;3.50;;;5.40;99.90;;;;;;5026489;28;20045;-49
2022/09/22 00:24:57;;;;;;;6.90;3.53;;;5.70;99.90;;;;;;5044337;28;20060;-53
2022/09/22 00:27:24;;;;;;;9.00;4.05;;;6.20;99.90;;;;;;5043892;28;20064;-50
2022/09/22 00:29:50;;;;;;;8.30;3.88;;;5.40;99.90;;;;;;5043596;28;20116;-53
2022/09/22 00:32:17;;;;;;;6.93;2.60;;;5.50;99.90;;;;;;5043790;28;20114;-52
2022/09/22 00:34:43;;;;;;;4.93;2.33;;;5.40;99.90;;;;;;5043595;28;20045;-50
2022/09/22 00:37:09;;;;;;;11.48;4.63;;;5.50;99.90;;;;;;5043896;28;20383;-52
2022/09/22 00:39:35;;;;;;;8.90;5.10;;;5.50;99.90;;;;;;5043452;28;20106;-52
2022/09/22 00:42:02;;;;;;;7.38;3.72;;;;;;;;;;5043813;28;20041;-53
2022/09/22 00:44:31;;;;;;;8.05;4.28;;;;;;;;;;5043863;28;20483;-50
2022/09/22 00:46:57;;;;;;;15.95;4.75;;;;;;;;;;5043996;28;20586;-52
2022/09/22 00:49:29;;;;;;;7.32;4.40;;;;;;;;;;5044707;28;20128;-50
2022/09/22 00:51:54;;;;;;;7.32;4.53;;;5.50;99.90;;;;;;5044656;28;20044;-49
2022/09/22 00:54:20;;;;;;;8.70;5.40;;;5.80;99.90;;;;;;5044358;28;20051;-53
2022/09/22 00:57:05;;;;;;;14.52;6.47;;;5.90;99.90;;;;;;5044386;28;20044;-53
2022/09/22 00:59:31;;;;;;;9.45;5.63;;;5.90;99.90;;;;;;5044383;28;20114;-50
2022/09/22 01:01:57;;;;;;;13.02;7.40;;;6.00;99.90;;;;;;5044084;28;20150;-52
2022/09/22 01:04:23;;;;;;;10.07;7.00;;;;;;;;;;5044544;28;20048;-54
2022/09/22 01:06:49;;;;;;;12.82;7.57;;;;;;;;;;5025922;28;20449;-51
2022/09/22 01:09:16;;;;;;;14.30;8.50;;;;;;;;;;5043990;28;20207;-51
2022/09/22 01:11:42;;;;;;;13.80;7.95;;;;;;;;;;5047631;28;20076;-51
2022/09/22 01:14:20;;;;;;;9.90;7.22;;;;;;;;;;5047659;28;20191;-52
2022/09/22 01:16:46;;;;;;;12.40;7.22;;;;;;;;;;5046616;28;20044;-50
2022/09/22 01:19:25;;;;;;;14.05;7.28;;;;;;;;;;5047062;28;20117;-51
2022/09/22 01:22:02;;;;;;;12.98;7.88;;;;;;;;;;5046500;28;20045;-49
2022/09/22 01:24:47;;;;;;;11.35;7.05;;;;;;;;;;5046872;28;20049;-52
2022/09/22 01:27:31;;;;;;;12.20;6.40;;;;;;;;;;5047475;28;20045;-50
2022/09/22 01:30:10;;;;;;;12.43;6.78;;;;;;;;;;5046812;28;20455;-50
2022/09/22 01:32:41;;;;;;;8.30;4.78;;;;;;;;;;5046999;28;20056;-54
2022/09/22 01:35:07;;;;;;;11.90;5.95;;;;;;;;;;5046937;28;20056;-51
2022/09/22 01:37:45;;;;;;;13.23;6.20;;;;;;;;;;5046894;28;20146;-52
2022/09/22 01:40:41;;;;;;;9.82;5.93;;;;;;;;;;5046456;28;20128;-52
2022/09/22 01:43:07;;;;;;;12.45;7.30;;;;;;;;;;5011090;28;20127;-49
2022/09/22 01:45:35;;;;;;;9.98;6.43;;;;;;;;;;5046550;28;20077;-53
2022/09/22 01:48:27;;;;;;;14.23;7.38;;;;;;;;;;5046554;28;20090;-50
2022/09/22 01:51:04;;;;;;;8.35;5.10;;;;;;;;;;5041893;28;20139;-51
2022/09/22 01:53:33;;;;;;;12.38;5.75;;;;;;;;;;5046342;28;20580;-53
2022/09/22 01:56:04;;;;;;;9.73;5.88;;;;;;;;;;5046541;28;20049;-50
2022/09/22 01:58:42;;;;;;;13.43;5.63;;;;;;;;;;5046420;28;20048;-49
2022/09/22 02:01:16;;;;;;;11.63;5.22;;;;;;;;;;5046318;28;20099;-52
2022/09/22 02:03:57;;;;;;;11.20;4.15;;;;;;;;;;5046508;28;20037;-51
2022/09/22 02:06:31;;;;;;;10.00;3.73;;;;;;;;;;5046521;28;20048;-49
2022/09/22 02:09:03;;;;;;;4.68;3.08;;;;;;;;;;5045548;28;20506;-50
2022/09/22 02:11:30;;;;;;;5.93;3.60;;;;;;;;;;5045788;28;20128;-50
2022/09/22 02:13:56;;;;;;;9.45;4.30;;;;;;;;;;5027961;28;20045;-52
2022/09/22 02:16:23;;;;;;;9.60;5.63;;;;;;;;;;5046060;28;20386;-49
2022/09/22 02:18:49;;;;;;;9.15;5.82;;;;;;;;;;5046350;28;20053;-53
2022/09/22 02:21:16;;;;;;;6.07;3.53;;;;;;;;;;5045533;28;20095;-51
2022/09/22 02:23:43;;;;;;;6.63;3.83;;;;;;;;;;5046310;28;20044;-49
2022/09/22 02:26:11;;;;;;;10.65;4.15;;;4.80;99.90;;;;;;5046092;28;20083;-52
2022/09/22 02:28:40;;;;;;;8.32;4.53;;;4.80;99.90;;;;;;5045637;28;20084;-52
2022/09/22 02:31:08;;;;;;;6.88;3.80;;;4.80;99.90;;;;;;5045613;28;20667;-49
2022/09/22 02:33:37;;;;;;;8.15;3.58;;;4.80;99.90;;;;;;5045914;28;20044;-54
2022/09/22 02:36:11;;;;;;;7.65;4.72;;;4.80;99.90;;;;;;5045752;28;20064;-52
2022/09/22 02:38:46;;;;;;;7.78;3.90;;;4.80;99.90;;;;;;5046278;28;20134;-52
2022/09/22 02:41:34;;;;;;;10.25;4.65;;;4.70;99.90;;;;;;5046103;28;20458;-51
2022/09/22 02:44:05;;;;;;;7.90;4.55;;;4.70;99.90;;;;;;5046167;28;20094;-52
2022/09/22 02:46:40;;;;;;;5.55;3.78;;;5.00;99.90;;;;;;5046133;28;20041;-50
2022/09/22 02:49:10;;;;;;;18.48;6.90;;;4.60;99.90;;;;;;5028047;28;20629;-53
2022/09/22 02:51:36;;;;;;;6.95;3.55;;;4.70;99.90;;;;;;5045292;28;20072;-53
2022/09/22 02:54:03;;;;;;;9.60;4.55;;;4.60;99.90;;;;;;5045118;28;20047;-50
2022/09/22 02:56:28;;;;;;;6.10;4.05;;;4.30;99.90;;;;;;5045079;28;20044;-53
2022/09/22 02:58:54;;;;;;;5.93;3.95;;;4.60;99.90;;;;;;5045155;28;20398;-53
2022/09/22 03:01:20;;;;;;;11.75;5.10;;;4.50;99.90;;;;;;5044962;28;20127;-53
2022/09/22 03:03:45;;;;;;;13.48;6.03;;;4.50;99.90;;;;;;5045183;28;20075;-53
2022/09/22 03:06:11;;;;;;;9.20;5.32;;;4.60;99.90;;;;;;5044783;28;20142;-48
2022/09/22 03:08:37;;;;;;;10.45;5.65;;;4.50;99.90;;;;;;5026800;28;20040;-47
2022/09/22 03:11:03;;;;;;;7.50;5.57;;;4.60;99.90;;;;;;5044826;28;20048;-48
2022/09/22 03:13:28;;;;;;;9.05;5.55;;;4.70;99.90;;;;;;5044815;28;20388;-50
2022/09/22 03:15:54;;;;;;;10.38;5.38;;;4.40;99.90;;;;;;5044334;28;20110;-48
2022/09/22 03:18:20;;;;;;;8.82;5.65;;;4.40;99.90;;;;;;5044862;28;20037;-51
2022/09/22 03:20:45;;;;;;;11.82;6.20;;;4.60;99.90;;;;;;5027436;28;20045;-48
2022/09/22 03:23:11;;;;;;;10.18;5.28;;;4.50;99.90;;;;;;5046047;28;20048;-50
2022/09/22 03:25:37;;;;;;;12.77;6.13;;;4.50;99.90;;;;;;5045408;28;20041;-49
2022/09/22 03:28:03;;;;;;;12.32;5.97;;;4.60;99.90;;;;;;5045259;28;20041;-47
2022/09/22 03:30:28;;;;;;;9.02;4.60;;;4.70;99.90;;;;;;5047752;28;20099;-49
2022/09/22 03:32:54;;;;;;;8.15;4.90;;;4.80;99.90;;;;;;5047268;28;20039;-47
2022/09/22 03:35:20;;;;;;;7.72;4.57;;;4.60;99.90;;;;;;5047100;28;20136;-47
2022/09/22 03:37:45;;;;;;;8.30;4.18;;;4.50;99.90;;;;;;5046366;28;20049;-50
2022/09/22 03:40:11;;;;;;;12.85;5.88;;;4.50;99.90;;;;;;5046457;28;20076;-47
2022/09/22 03:42:37;;;;;;;11.48;5.90;;;4.50;99.90;;;;;;5046198;28;20103;-49
2022/09/22 03:45:04;;;;;;;10.18;6.63;;;4.70;99.90;;;;;;5045014;28;20072;-48
2022/09/22 03:47:29;;;;;;;10.95;6.80;;;4.20;99.90;;;;;;5045051;28;20055;-47
2022/09/22 03:49:55;;;;;;;8.82;5.53;;;4.30;99.90;;;;;;5045103;28;20052;-50
2022/09/22 03:52:21;;;;;;;10.68;6.60;;;4.40;99.90;;;;;;5045152;28;20049;-47
2022/09/22 03:54:47;;;;;;;11.75;6.85;;;4.30;99.90;;;;;;5045803;28;20066;-49
2022/09/22 03:57:13;;;;;;;10.07;6.35;;;4.20;99.90;;;;;;5045396;28;20033;-48
2022/09/22 03:59:38;;;;;;;14.52;8.88;;;4.30;99.90;;;;;;5045041;28;20529;-47
2022/09/22 04:02:04;;;;;;;12.95;8.20;;;4.30;99.90;;;;;;5049369;28;20391;-48
2022/09/22 04:04:31;;;;;;;10.63;7.00;;;4.40;99.90;;;;;;5050103;28;20041;-47
2022/09/22 04:06:57;;;;;;;13.57;9.30;;;4.30;99.90;;;;;;5049462;28;20095;-48
2022/09/22 04:09:22;;;;;;;14.90;9.05;;;4.30;99.90;;;;;;5048617;28;20064;-47
2022/09/22 04:11:49;;;;;;;13.85;7.47;;;4.40;99.90;;;;;;5048500;28;20060;-46
2022/09/22 04:14:14;;;;;;;17.55;10.60;;;4.30;99.90;;;;;;5050999;28;20426;-48
2022/09/22 04:16:41;;;;;;;15.18;8.57;;;4.50;99.90;;;;;;5032307;28;20056;-47
2022/09/22 04:19:08;;;;;;;12.43;8.10;;;4.30;99.90;;;;;;5048950;28;20398;-49
2022/09/22 04:21:34;;;;;;;10.68;7.32;;;4.30;99.90;;;;;;5048978;28;20040;-47
2022/09/22 04:24:00;;;;;;;8.85;7.03;;;4.20;99.90;;;;;;5047034;28;20040;-47
2022/09/22 04:26:25;;;;;;;10.50;6.80;;;4.00;99.90;;;;;;5046192;28;20045;-50
2022/09/22 04:28:51;;;;;;;13.88;8.18;;;4.20;99.90;;;;;;5046002;28;20268;-48
2022/09/22 04:31:18;;;;;;;15.00;9.18;;;4.10;99.90;;;;;;5045109;28;20111;-46
2022/09/22 04:33:44;;;;;;;19.33;9.07;;;4.10;99.90;;;;;;5044023;28;20406;-47
2022/09/22 04:36:10;;;;;;;16.20;8.68;;;3.90;99.90;;;;;;5044176;28;20060;-47
2022/09/22 04:38:35;;;;;;;16.60;8.82;;;3.80;99.90;;;;;;5044538;28;20119;-48
2022/09/22 04:41:01;;;;;;;20.70;10.65;;;3.80;99.90;;;;;;5044500;28;20474;-48
2022/09/22 04:43:27;;;;;;;21.33;12.57;;;3.80;99.90;;;;;;5044591;28;20391;-51
2022/09/22 04:45:52;;;;;;;17.20;11.10;;;3.80;99.90;;;;;;5047400;28;20041;-49
2022/09/22 04:48:18;;;;;;;16.13;11.45;;;3.90;99.90;;;;;;5048402;28;20102;-46
2022/09/22 04:50:44;;;;;;;14.85;10.38;;;3.90;99.90;;;;;;5051154;28;20040;-48
2022/09/22 04:53:11;;;;;;;16.13;11.30;;;4.00;99.90;;;;;;5051226;28;20040;-47
2022/09/22 04:55:37;;;;;;;20.10;14.07;;;4.00;99.90;;;;;;5052145;28;20080;-50
2022/09/22 04:58:03;;;;;;;20.30;13.45;;;4.20;99.90;;;;;;5050199;28;20041;-46
2022/09/22 05:00:29;;;;;;;23.95;16.10;;;4.10;99.90;;;;;;5048796;28;20079;-46
2022/09/22 05:02:55;;;;;;;17.80;11.18;;;4.10;99.90;;;;;;5050792;28;20033;-47
2022/09/22 05:05:24;;;;;;;22.15;12.77;;;4.10;99.90;;;;;;5048789;28;20044;-49
2022/09/22 05:07:53;;;;;;;33.40;18.17;;;4.10;99.90;;;;;;5047724;28;20434;-52
2022/09/22 05:10:24;;;;;;;29.67;17.48;;;4.10;99.90;;;;;;5047500;28;20068;-49
2022/09/22 05:12:52;;;;;;;25.63;19.50;;;4.10;99.90;;;;;;5047681;28;20403;-47
2022/09/22 05:15:17;;;;;;;32.92;20.98;;;4.20;99.90;;;;;;5047375;28;20062;-47
2022/09/22 05:17:51;;;;;;;27.42;21.13;;;4.30;99.90;;;;;;5047105;28;20045;-47
2022/09/22 05:20:18;;;;;;;34.95;22.20;;;4.30;99.90;;;;;;5047830;28;20067;-47
2022/09/22 05:22:44;;;;;;;30.33;17.73;;;4.50;99.90;;;;;;5047981;28;20041;-47
2022/09/22 05:25:13;;;;;;;29.42;16.27;;;4.30;99.90;;;;;;5047842;28;20059;-49
2022/09/22 05:27:50;;;;;;;26.80;15.15;;;4.30;99.90;;;;;;5047780;28;20128;-47
2022/09/22 05:30:16;;;;;;;26.25;16.70;;;4.30;99.90;;;;;;5047712;28;20088;-49
2022/09/22 05:32:43;;;;;;;39.60;21.27;;;4.10;99.90;;;;;;5048103;28;20155;-47
2022/09/22 05:35:10;;;;;;;36.45;21.30;;;4.20;99.90;;;;;;5047950;28;20057;-48
2022/09/22 05:37:36;;;;;;;37.28;21.65;;;4.60;99.90;;;;;;5047575;28;20336;-46
2022/09/22 05:40:02;;;;;;;43.30;22.05;;;4.30;99.90;;;;;;5047568;28;20040;-47
2022/09/22 05:42:28;;;;;;;32.60;21.40;;;4.20;99.90;;;;;;5047074;28;20041;-47
2022/09/22 05:44:54;;;;;;;46.90;24.23;;;4.50;99.90;;;;;;5047180;28;20040;-46
2022/09/22 05:47:19;;;;;;;28.08;20.05;;;4.70;99.90;;;;;;5047694;28;20132;-47
2022/09/22 05:49:45;;;;;;;32.33;21.27;;;4.50;99.90;;;;;;5047695;28;20126;-49
2022/09/22 05:52:10;;;;;;;29.52;21.10;;;4.60;99.90;;;;;;5048475;28;20044;-47
2022/09/22 05:54:36;;;;;;;24.05;15.35;;;4.80;99.90;;;;;;5049592;28;20099;-50
2022/09/22 05:57:02;;;;;;;14.40;10.50;;;4.80;99.90;;;;;;5048382;28;20044;-48
2022/09/22 05:59:27;;;;;;;19.42;13.30;;;4.70;99.90;;;;;;5047391;28;20045;-49
2022/09/22 06:01:53;;;;;;;22.33;15.63;;;4.80;99.90;;;;;;5047466;28;20041;-48
2022/09/22 06:04:19;;;;;;;23.35;16.63;;;4.90;99.90;;;;;;5046484;28;20037;-47
2022/09/22 06:06:44;;;;;;;25.05;18.48;;;5.00;99.90;;;;;;5047124;28;20152;-50
2022/09/22 06:09:10;;;;;;;20.05;14.38;;;4.90;99.90;;;;;;5046489;28;20057;-48
2022/09/22 06:11:36;;;;;;;26.33;18.20;;;5.00;99.90;;;;;;5046792;28;20048;-48
2022/09/22 06:14:01;;;;;;;25.17;17.80;;;5.00;99.90;;;;;;5046778;28;20064;-48
2022/09/22 06:16:29;;;;;;;29.60;19.42;;;4.90;99.90;;;;;;5046627;28;20040;-47
2022/09/22 06:18:55;;;;;;;28.90;19.73;;;5.00;99.90;;;;;;5047766;28;20120;-51
2022/09/22 06:21:20;;;;;;;23.65;18.13;;;5.00;99.90;;;;;;5047563;28;20158;-51
2022/09/22 06:23:46;;;;;;;21.92;18.02;;;5.10;99.90;;;;;;5047237;28;20045;-49
2022/09/22 06:26:11;;;;;;;21.00;17.83;;;5.20;99.90;;;;;;5047616;28;20099;-48
2022/09/22 06:28:37;;;;;;;24.70;20.15;;;5.20;99.90;;;;;;5047720;28;20083;-47
2022/09/22 06:31:03;;;;;;;26.92;19.90;;;6.20;99.90;;;;;;5049742;28;20499;-47
2022/09/22 06:33:29;;;;;;;28.15;21.77;;;5.70;99.90;;;;;;5050772;28;20045;-50
2022/09/22 06:35:56;;;;;;;27.95;20.65;;;5.50;99.90;;;;;;5049752;28;20049;-47
2022/09/22 06:38:22;;;;;;;20.90;18.65;;;5.90;99.90;;;;;;5048864;28;20059;-47
2022/09/22 06:40:49;;;;;;;24.13;19.83;;;6.30;99.90;;;;;;5050721;28;20037;-47
2022/09/22 06:43:21;;;;;;;24.67;19.85;;;5.70;99.90;;;;;;5051075;28;20111;-51
2022/09/22 06:45:52;;;;;;;26.38;21.45;;;5.80;99.90;;;;;;5046913;28;20463;-51
2022/09/22 06:48:21;;;;;;;34.33;24.42;;;5.80;99.90;;;;;;5048389;28;20494;-48
2022/09/22 06:50:48;;;;;;;29.20;21.90;;;6.70;99.90;;;;;;5052648;28;20037;-47
2022/09/22 06:53:13;;;;;;;37.38;25.70;;;6.10;99.90;;;;;;5049780;28;20100;-48
2022/09/22 06:55:42;;;;;;;29.50;24.02;;;6.00;99.90;;;;;;5047341;28;20040;-47
2022/09/22 06:58:08;;;;;;;27.10;22.15;;;6.20;99.90;;;;;;5047057;28;20052;-52
2022/09/22 07:00:34;;;;;;;33.78;27.15;;;6.10;99.90;;;;;;5045470;28;20036;-49
2022/09/22 07:03:21;;;;;;;35.80;27.42;;;6.30;99.90;;;;;;5046029;28;20106;-52
2022/09/22 07:06:01;;;;;;;29.10;25.15;;;6.50;99.90;;;;;;5049151;28;20502;-48
2022/09/22 07:08:29;;;;;;;29.52;24.95;;;6.70;99.90;;;;;;5049732;28;20045;-49
2022/09/22 07:11:03;;;;;;;32.35;25.55;;;6.80;99.90;;;;;;5049586;28;20048;-47
2022/09/22 07:13:30;;;;;;;27.00;22.63;;;7.20;99.90;;;;;;5048209;28;20061;-49
2022/09/22 07:16:06;;;;;;;35.30;26.90;;;7.40;99.90;;;;;;5050574;28;20040;-47
2022/09/22 07:18:33;;;;;;;26.27;21.50;;;7.30;99.90;;;;;;5049976;28;20048;-45
2022/09/22 07:21:11;;;;;;;23.55;19.63;;;7.50;99.90;;;;;;5048542;28;20041;-48
2022/09/22 07:23:37;;;;;;;28.23;24.52;;;7.50;99.90;;;;;;5046407;28;20037;-47
2022/09/22 07:26:05;;;;;;;30.13;26.58;;;8.50;99.90;;;;;;5027256;28;20453;-46
2022/09/22 07:28:32;;;;;;;27.67;21.98;;;;;;;;;;5044113;28;20056;-49
2022/09/22 07:31:09;;;;;;;25.83;22.55;;;8.10;99.90;;;;;;5047982;28;20029;-46
2022/09/22 07:33:36;;;;;;;25.17;22.52;;;8.30;99.90;;;;;;5049903;28;20437;-52
2022/09/22 07:36:07;;;;;;;23.33;19.08;;;8.60;99.90;;;;;;5048449;28;20487;-46
2022/09/22 07:38:38;;;;;;;22.75;20.35;;;8.40;99.90;;;;;;5047578;28;20044;-47
2022/09/22 07:41:05;;;;;;;23.40;20.25;;;8.70;99.90;;;;;;5047110;28;20052;-52
2022/09/22 07:43:32;;;;;;;22.30;18.30;;;8.60;99.90;;;;;;5044278;28;20044;-48
2022/09/22 07:45:58;;;;;;;21.52;19.17;;;8.90;99.90;;;;;;5045104;28;20534;-50
2022/09/22 07:48:40;;;;;;;21.38;17.92;;;8.70;99.90;;;;;;5043937;28;20390;-58
2022/09/22 07:51:11;;;;;;;22.38;19.17;;;8.80;99.90;;;;;;5044957;28;20128;-47
2022/09/22 07:53:38;;;;;;;22.02;17.38;;;8.90;99.90;;;;;;5044722;28;20047;-48
2022/09/22 07:56:11;;;;;;;25.00;18.60;;;8.80;99.90;;;;;;5045736;28;20115;-47
2022/09/22 07:58:40;;;;;;;20.27;15.68;;;9.10;99.90;;;;;;5041031;28;20680;-40
2022/09/22 08:01:09;;;;;;;19.17;16.42;;;9.00;99.90;;;;;;5022251;28;20084;-45
2022/09/22 08:03:36;;;;;;;17.15;12.90;;;9.60;99.90;;;;;;5041571;28;20036;-42
2022/09/22 08:06:10;;;;;;;20.33;14.48;;;9.80;99.90;;;;;;5043675;28;20094;-48
2022/09/22 08:08:37;;;;;;;20.98;12.23;;;9.90;99.90;;;;;;5042781;28;20052;-48
2022/09/22 08:11:05;;;;;;;16.50;10.70;;;10.00;99.90;;;;;;5042843;28;20055;-43
2022/09/22 08:13:32;;;;;;;23.48;11.63;;;10.20;99.90;;;;;;5042648;28;20052;-49
2022/09/22 08:15:58;;;;;;;15.68;10.15;;;10.30;99.90;;;;;;5042953;28;20048;-42
2022/09/22 08:18:24;;;;;;;14.50;10.07;;;10.20;99.90;;;;;;5044005;28;20057;-42
2022/09/22 08:20:50;;;;;;;14.35;10.52;;;10.70;99.90;;;;;;5046582;28;20399;-42
2022/09/22 08:23:16;;;;;;;12.50;9.57;;;10.90;99.90;;;;;;5047935;28;20059;-45
2022/09/22 08:25:42;;;;;;;11.52;8.73;;;11.10;99.90;;;;;;5047905;28;20076;-43
2022/09/22 08:28:09;;;;;;;14.82;9.80;;;11.20;99.90;;;;;;5047183;28;20738;-41
2022/09/22 08:30:35;;;;;;;13.70;9.85;;;11.70;99.90;;;;;;5046941;28;20044;-46
2022/09/22 08:33:00;;;;;;;12.45;7.60;;;12.50;99.90;;;;;;5029318;28;20120;-42
2022/09/22 08:35:26;;;;;;;13.32;9.52;;;12.00;99.90;;;;;;5047395;28;20051;-44
2022/09/22 08:37:52;;;;;;;12.18;9.55;;;12.30;99.90;;;;;;5029091;28;20127;-46
2022/09/22 08:40:22;;;;;;;12.75;9.07;;;12.60;99.90;;;;;;5046752;28;20041;-40
2022/09/22 08:42:51;;;;;;;10.60;8.05;;;12.80;99.90;;;;;;5046635;28;20047;-41
2022/09/22 08:45:29;;;;;;;10.60;7.53;;;13.30;99.90;;;;;;5047511;28;20053;-41
2022/09/22 08:53:46;;;;;;;8.80;5.40;;;14.00;99.90;;;;;;5046292;28;20060;-40
2022/09/22 08:56:45;;;;;;;7.15;5.47;;;14.20;99.90;;;;;;5046775;28;20720;-39
2022/09/22 08:59:17;;;;;;;10.00;5.03;;;14.40;99.90;;;;;;5046912;28;20040;-41
2022/09/22 09:02:27;;;;;;;8.82;5.63;;;14.80;99.90;;;;;;5024302;28;20568;-43
2022/09/22 09:05:14;;;;;;;9.60;4.68;;;15.10;99.90;;;;;;5046080;28;20080;-43
2022/09/22 09:08:08;;;;;;;8.20;4.20;;;15.30;99.90;;;;;;5047229;28;20056;-43
2022/09/22 09:10:41;;;;;;;8.20;4.00;;;15.60;99.90;;;;;;5042203;28;20064;-46
2022/09/22 09:13:15;;;;;;;8.88;4.55;;;15.80;99.90;;;;;;5047469;28;20084;-43
2022/09/22 09:15:49;;;;;;;7.05;4.35;;;16.20;99.90;;;;;;5046370;28;20128;-39
2022/09/22 09:18:19;;;;;;;7.03;4.50;;;16.50;99.90;;;;;;5047116;28;20558;-51
2022/09/22 09:20:47;;;;;;;6.22;2.95;;;16.90;99.90;;;;;;5046825;28;20112;-42
2022/09/22 09:23:19;;;;;;;8.27;3.75;;;17.10;99.90;;;;;;5047126;28;20072;-42
2022/09/22 09:25:47;;;;;;;;;;;17.40;99.90;;;;;;5047443;28;20044;-40
2022/09/22 09:28:28;;;;;;;6.30;3.20;;;17.60;99.90;;;;;;5047170;28;20055;-40
2022/09/22 09:31:03;;;;;;;5.38;2.92;;;17.60;99.90;;;;;;5046028;28;20048;-41
2022/09/22 09:33:42;;;;;;;6.55;3.75;;;17.70;99.90;;;;;;5047029;28;20633;-42
2022/09/22 09:36:21;;;;;;;5.28;2.80;;;17.90;99.90;;;;;;5045093;28;20474;-42
2022/09/22 09:38:58;;;;;;;4.93;3.10;;;18.30;99.90;;;;;;5046288;28;20044;-41
2022/09/22 09:41:34;;;;;;;4.50;2.63;;;18.00;99.90;;;;;;5045880;28;20550;-42
2022/09/22 09:44:01;;;;;;;6.30;3.08;;;18.10;99.90;;;;;;5046623;28;20045;-42
2022/09/22 09:46:45;;;;;;;8.15;2.35;;;18.30;99.90;;;;;;5047089;28;20044;-42
2022/09/22 09:49:14;;;;;;;3.53;2.20;;;18.30;99.90;;;;;;5046526;28;20053;-42
2022/09/22 09:51:49;;;;;;;7.13;2.45;;;18.50;99.90;;;;;;5046532;28;20175;-43
2022/09/22 09:54:16;;;;;;;5.97;2.85;;;18.70;99.90;;;;;;5047106;28;20099;-42
2022/09/22 09:57:03;;;;;;;7.70;2.42;;;18.70;99.90;;;;;;5046632;28;20363;-42
2022/09/22 10:02:16;;;;;;;4.20;2.10;;;17.40;99.90;;;;;;5046850;28;20155;-45
2022/09/22 10:05:08;;;;;;;5.28;2.05;;;19.00;99.60;;;;;;5046277;28;20127;-46
2022/09/22 10:07:43;;;;;;;6.30;2.10;;;19.60;97.60;;;;;;5031493;28;20499;-41
2022/09/22 10:10:41;;;;;;;4.53;2.20;;;19.80;96.70;;;;;;5045229;28;20939;-43
2022/09/22 10:13:07;;;;;;;6.95;2.63;;;19.60;94.10;;;;;;4990637;28;20376;-40
2022/09/22 10:15:36;;;;;;;7.97;2.05;;;19.30;95.10;;;;;;5044944;28;20052;-43
2022/09/22 10:18:22;;;;;;;3.90;2.10;;;19.10;95.00;;;;;;5044853;28;20111;-41
2022/09/22 10:21:14;;;;;;;3.67;1.50;;;19.00;95.60;;;;;;5044738;28;20454;-44
2022/09/22 10:23:44;;;;;;;3.45;1.42;;;18.80;94.80;;;;;;5045764;28;20044;-45
2022/09/22 10:26:31;;;;;;;5.88;1.70;;;18.70;94.70;;;;;;5045299;28;20564;-44
2022/09/22 10:29:12;;;;;;;8.15;1.77;;;18.50;93.40;;;;;;5044784;28;20052;-46
2022/09/22 10:32:01;;;;;;;4.68;1.23;;;18.30;94.20;;;;;;5046026;28;20132;-46
2022/09/22 10:34:59;;;;;;;3.55;1.30;;;18.20;95.30;;;;;;5045360;28;20044;-45
2022/09/22 10:37:28;;;;;;;5.55;1.73;;;18.00;92.00;;;;;;4989804;28;20406;-53
2022/09/22 10:40:00;;;;;;;5.35;1.10;;;17.90;94.40;;;;;;5045226;28;20053;-41
2022/09/22 10:42:39;;;;;;;6.32;1.13;;;17.80;93.50;;;;;;5026806;28;20048;-44
2022/09/22 10:45:18;;;;;;;4.40;1.20;;;17.70;93.20;;;;;;5045128;28;20111;-48
2022/09/22 10:48:15;;;;;;;3.33;1.20;;;17.50;94.40;;;;;;5045460;28;20079;-43
2022/09/22 10:50:50;;;;;;;5.05;1.73;;;17.30;94.20;;;;;;5007053;28;20076;-44
2022/09/22 10:53:31;;;;;;;3.83;1.27;;;17.10;95.30;;;;;;5046662;28;20100;-43
2022/09/22 10:56:20;;;;;;;3.95;1.50;;;16.90;97.00;;;;;;5045214;28;20057;-45
2022/09/22 10:59:10;;;;;;;5.00;1.00;;;16.80;98.00;;;;;;5045560;28;20047;-48
2022/09/22 11:02:00;;;;;;;6.18;1.08;;;16.90;97.80;;;;;;5028074;28;20083;-45
2022/09/22 11:04:44;;;;;;;5.35;1.35;;;17.00;97.60;;;;;;5045546;28;20048;-53
2022/09/22 11:14:03;;;;;;;2.88;1.20;;;17.30;96.20;;;;;;5045626;28;20217;-44
2022/09/22 11:16:58;;;;;;;5.00;1.20;;;17.30;94.60;;;;;;5045836;28;20041;-42
2022/09/22 11:19:44;;;;;;;5.65;2.20;;;17.50;95.50;;;;;;5044920;28;20056;-41
2022/09/22 11:22:25;;;;;;;3.53;1.38;;;17.80;95.60;;;;;;5024083;28;20052;-42
2022/09/22 11:25:15;;;;;;;4.72;1.48;;;18.00;92.60;;;;;;5026203;28;20052;-41
2022/09/22 11:28:13;;;;;;;3.67;1.33;;;18.00;92.20;;;;;;5044220;28;20513;-40
2022/09/22 11:30:51;;;;;;;6.43;1.80;;;18.10;90.60;;;;;;5017975;28;20064;-41
2022/09/22 11:33:20;;;;;;;5.75;1.25;;;18.10;91.20;;;;;;5009778;28;20398;-42
2022/09/22 11:35:58;;;;;;;3.67;1.25;;;18.10;90.90;;;;;;5043938;28;20064;-43
2022/09/22 11:38:30;;;;;;;3.65;1.35;;;18.20;90.10;;;;;;5025587;28;20053;-42
2022/09/22 11:41:14;;;;;;;5.30;1.30;;;18.40;90.60;;;;;;5025296;28;20134;-44
2022/09/22 11:44:12;;;;;;;3.83;0.82;;;18.50;90.50;;;;;;5025421;28;20403;-41
2022/09/22 11:46:41;;;;;;;4.07;1.48;;;18.50;90.00;;;;;;5044169;28;20088;-41
2022/09/22 11:49:36;;;;;;;5.28;1.30;;;18.30;90.70;;;;;;5043839;28;20045;-44
2022/09/22 11:52:05;;;;;;;5.70;1.50;;;18.10;89.00;;;;;;5025407;28;20049;-41
2022/09/22 11:54:50;;;;;;;6.03;1.60;;;17.90;90.70;;;;;;5025055;28;20059;-41
2022/09/22 11:57:22;;;;;;;4.90;1.15;;;18.10;90.20;;;;;;5024637;28;20049;-43
2022/09/22 11:59:54;;;;;;;6.70;1.90;;;18.10;90.70;;;;;;5043451;28;20052;-46
2022/09/22 12:02:45;;;;;;;2.58;1.50;;;18.10;91.10;;;;;;5043896;28;20040;-47
2022/09/22 12:05:25;;;;;;;5.82;2.97;;;18.00;89.50;;;;;;5043348;28;20164;-47
2022/09/22 12:08:24;;;;;;;6.15;1.92;;;17.90;90.10;;;;;;5044383;28;20048;-41
2022/09/22 12:10:54;;;;;;;5.82;1.40;;;17.80;88.10;;;;;;5037878;28;20470;-43
2022/09/22 12:13:24;;;;;;;5.53;1.77;;;17.90;89.90;;;;;;5043756;28;20052;-42
2022/09/22 12:15:58;;;;;;;3.67;1.85;;;17.50;89.80;;;;;;5044944;28;20045;-42
2022/09/22 12:18:47;;;;;;;5.22;1.67;;;17.50;87.70;;;;;;5044848;28;20072;-43
2022/09/22 12:21:22;;;;;;;5.40;1.60;;;17.70;89.10;;;;;;5043820;28;20114;-45
2022/09/22 12:23:49;;;;;;;6.07;1.85;;;17.90;87.70;;;;;;5043396;28;20491;-44
2022/09/22 12:26:26;;;;;;;6.50;1.75;;;18.10;88.90;;;;;;5043262;28;20048;-43
2022/09/22 12:28:52;;;;;;;7.65;2.58;;;18.30;90.00;;;;;;5043001;28;20048;-45
2022/09/22 12:31:19;;;;;;;7.93;2.10;;;18.40;90.80;;;;;;5044023;28;20403;-45
2022/09/22 12:33:55;;;;;;;3.20;1.63;;;18.40;90.70;;;;;;5044194;28;20379;-41
2022/09/22 12:36:36;;;;;;;4.90;1.73;;;18.30;89.20;;;;;;5044243;28;20060;-41
2022/09/22 12:39:06;;;;;;;4.22;2.03;;;18.20;90.00;;;;;;5043080;28;20502;-53
2022/09/22 12:41:31;;;;;;;2.92;1.42;;;18.00;89.90;;;;;;5042319;28;20110;-51
2022/09/22 12:44:11;;;;;;;3.50;1.85;;;18.00;90.50;;;;;;5043678;28;20041;-52
2022/09/22 12:46:41;;;;;;;5.32;2.03;;;18.00;90.70;;;;;;5044036;28;20055;-49
2022/09/22 12:49:08;;;;;;;6.38;1.67;;;18.00;90.40;;;;;;5043300;28;20120;-54
2022/09/22 12:51:34;;;;;;;5.05;1.90;;;18.00;90.30;;;;;;5042978;28;20124;-51
2022/09/22 12:54:35;;;;;;;3.50;1.80;;;18.10;90.40;;;;;;5042870;28;20049;-51
2022/09/22 12:57:05;;;;;;;4.30;1.83;;;18.30;89.90;;;;;;5029256;28;20057;-52
2022/09/22 12:59:36;;;;;;;3.53;1.83;;;18.40;89.10;;;;;;5044348;28;20279;-51
2022/09/22 13:02:17;;;;;;;4.22;2.25;;;18.40;90.20;;;;;;5043378;28;20535;-49
2022/09/22 13:04:51;;;;;;;4.97;2.53;;;18.30;91.20;;;;;;5044238;28;20095;-55
2022/09/22 13:07:36;;;;;;;5.47;2.72;;;18.00;92.10;;;;;;5047366;28;20051;-55
2022/09/22 13:10:20;;;;;;;5.90;1.88;;;17.90;91.70;;;;;;5047411;28;20483;-52
2022/09/22 13:15:53;;;;;;;8.77;2.33;;;17.80;88.20;;;;;;5028172;28;20132;-48
2022/09/22 13:18:38;;;;;;;6.35;1.80;;;17.80;89.20;;;;;;5031223;28;20084;-47
2022/09/22 13:21:13;;;;;;;7.00;2.15;;;17.80;88.00;;;;;;5028085;28;20037;-43
2022/09/22 13:23:48;;;;;;;3.85;1.95;;;17.80;83.70;;;;;;5046688;28;20545;-44
2022/09/22 13:26:15;;;;;;;7.45;2.25;;;17.70;88.50;;;;;;5047147;28;20079;-46
2022/09/22 13:28:42;;;;;;;5.43;2.17;;;17.60;88.50;;;;;;5047117;28;20414;-45
2022/09/22 13:31:14;;;;;;;4.43;1.90;;;17.60;87.90;;;;;;5046771;28;20514;-54
2022/09/22 13:33:40;;;;;;;8.98;2.45;;;17.50;89.20;;;;;;5046656;28;20554;-52
2022/09/22 13:36:27;;;;;;;5.47;2.08;;;17.40;90.40;;;;;;5046865;28;20048;-49